createdAt,value
2023-05-14T00:01:00.603Z,7.25
2023-05-14T00:03:27.202Z,8.60
2023-05-14T00:05:53.703Z,8.63
2023-05-14T00:08:20.306Z,7.43
2023-05-14T00:10:46.937Z,8.68
2023-05-14T00:13:13.411Z,7.53
2023-05-14T00:15:40.110Z,7.90
2023-05-14T00:18:07.129Z,12.65
2023-05-14T00:20:33.797Z,11.77
2023-05-14T00:23:00.661Z,8.20
2023-05-14T00:25:27.277Z,9.55
2023-05-14T00:27:53.777Z,9.98
2023-05-14T00:30:20.509Z,10.73
2023-05-14T00:32:47.064Z,10.65
2023-05-14T00:35:13.550Z,10.70
2023-05-14T00:37:39.997Z,10.15
2023-05-14T00:40:08.470Z,9.32
2023-05-14T00:42:35.070Z,9.95
2023-05-14T00:45:01.604Z,12.32
2023-05-14T00:47:28.260Z,8.48
2023-05-14T00:49:54.752Z,9.07
2023-05-14T00:52:22.036Z,13.30
2023-05-14T00:54:49.109Z,10.98
2023-05-14T00:57:18.577Z,11.10
2023-05-14T00:59:45.204Z,13.18
2023-05-14T01:02:11.672Z,8.20
2023-05-14T01:04:38.711Z,9.13
2023-05-14T01:07:13.097Z,11.63
2023-05-14T01:09:48.546Z,10.05
2023-05-14T01:12:25.069Z,12.45
2023-05-14T01:15:02.072Z,9.63
2023-05-14T01:17:32.667Z,9.48
2023-05-14T01:20:00.235Z,10.07
2023-05-14T01:22:26.861Z,9.60
2023-05-14T01:24:53.305Z,9.65
2023-05-14T01:27:31.534Z,11.13
2023-05-14T01:30:05.092Z,11.93
2023-05-14T01:32:33.608Z,8.93
2023-05-14T01:35:01.690Z,10.70
2023-05-14T01:37:30.069Z,8.77
2023-05-14T01:39:57.522Z,10.23
2023-05-14T01:42:24.116Z,9.93
2023-05-14T01:44:50.779Z,9.23
2023-05-14T01:47:17.258Z,9.02
2023-05-14T01:49:43.840Z,10.57
2023-05-14T01:52:10.363Z,9.63
2023-05-14T01:54:36.764Z,11.27
2023-05-14T01:57:03.346Z,9.68
2023-05-14T01:59:29.842Z,21.50
2023-05-14T02:01:56.413Z,9.75
2023-05-14T02:04:22.985Z,9.75
2023-05-14T02:06:49.440Z,17.10
2023-05-14T02:09:16.234Z,11.40
2023-05-14T02:11:42.675Z,11.63
2023-05-14T02:14:09.089Z,8.75
2023-05-14T02:16:35.928Z,11.65
2023-05-14T02:19:02.515Z,9.45
2023-05-14T02:21:29.672Z,11.27
2023-05-14T02:23:56.326Z,10.43
2023-05-14T02:26:22.794Z,9.93
2023-05-14T02:28:50.175Z,10.93
2023-05-14T02:31:19.198Z,9.93
2023-05-14T02:33:45.917Z,14.38
2023-05-14T02:36:12.378Z,12.02
2023-05-14T02:38:38.999Z,9.88
2023-05-14T02:41:05.434Z,13.52
2023-05-14T02:43:31.866Z,9.63
2023-05-14T02:45:58.268Z,10.02
2023-05-14T02:48:25.248Z,11.48
2023-05-14T02:50:52.148Z,9.48
2023-05-14T02:53:18.619Z,10.82
2023-05-14T02:55:45.155Z,11.18
2023-05-14T02:58:11.613Z,12.57
2023-05-14T03:00:38.109Z,10.57
2023-05-14T03:03:05.155Z,11.70
2023-05-14T03:05:32.338Z,11.43
2023-05-14T03:07:58.874Z,11.20
2023-05-14T03:10:25.574Z,12.98
2023-05-14T03:12:52.388Z,11.98
2023-05-14T03:15:18.908Z,15.20
2023-05-14T03:17:45.574Z,10.60
2023-05-14T03:20:12.791Z,12.80
2023-05-14T03:22:39.364Z,13.50
2023-05-14T03:25:06.262Z,9.85
2023-05-14T03:27:33.685Z,9.70
2023-05-14T03:30:00.711Z,9.38
2023-05-14T03:32:27.286Z,9.40
2023-05-14T03:34:53.963Z,10.07
2023-05-14T03:37:21.047Z,9.95
2023-05-14T03:39:47.500Z,9.63
2023-05-14T03:42:13.940Z,9.80
2023-05-14T03:44:40.723Z,10.18
2023-05-14T03:47:07.776Z,10.80
2023-05-14T03:49:34.284Z,10.73
2023-05-14T03:52:00.767Z,12.35
2023-05-14T03:54:27.243Z,10.57
2023-05-14T03:56:53.699Z,10.68
2023-05-14T03:59:20.157Z,14.02
2023-05-14T04:01:46.653Z,9.70
2023-05-14T04:04:13.132Z,10.85
2023-05-14T04:06:39.584Z,12.77
2023-05-14T04:09:06.054Z,11.25
2023-05-14T04:11:32.498Z,11.05
2023-05-14T04:13:59.649Z,8.43
2023-05-14T04:16:26.364Z,11.35
2023-05-14T04:18:52.930Z,12.15
2023-05-14T04:21:20.715Z,12.65
2023-05-14T04:23:47.229Z,10.45
2023-05-14T04:26:13.796Z,11.90
2023-05-14T04:28:40.489Z,8.77
2023-05-14T04:31:06.993Z,8.45
2023-05-14T04:33:33.467Z,10.13
2023-05-14T04:35:59.974Z,12.85
2023-05-14T04:38:26.646Z,11.95
2023-05-14T04:40:53.100Z,11.32
2023-05-14T04:43:19.549Z,10.60
2023-05-14T04:45:46.218Z,9.57
2023-05-14T04:48:12.825Z,10.73
2023-05-14T04:50:39.328Z,9.20
2023-05-14T04:53:05.823Z,10.30
2023-05-14T04:55:32.268Z,14.38
2023-05-14T04:57:58.725Z,11.40
2023-05-14T05:00:25.709Z,11.63
2023-05-14T05:02:52.610Z,10.95
2023-05-14T05:05:19.201Z,12.05
2023-05-14T05:07:45.656Z,11.02
2023-05-14T05:10:12.167Z,10.57
2023-05-14T05:12:38.735Z,10.93
2023-05-14T05:15:06.208Z,11.07
2023-05-14T05:17:32.719Z,8.93
2023-05-14T05:19:59.178Z,9.18
2023-05-14T05:22:25.865Z,10.30
2023-05-14T05:24:52.289Z,9.90
2023-05-14T05:27:18.783Z,10.25
2023-05-14T05:29:46.175Z,10.18
2023-05-14T05:32:12.609Z,9.43
2023-05-14T05:34:39.085Z,8.25
2023-05-14T05:37:06.076Z,11.30
2023-05-14T05:39:34.823Z,9.45
2023-05-14T05:42:02.558Z,10.68
2023-05-14T05:44:29.128Z,9.73
2023-05-14T05:46:57.237Z,9.88
2023-05-14T05:49:24.052Z,9.52
2023-05-14T05:51:50.646Z,10.95
2023-05-14T05:54:17.208Z,9.23
2023-05-14T05:56:43.663Z,10.48
2023-05-14T05:59:10.107Z,9.40
2023-05-14T06:01:37.065Z,9.82
2023-05-14T06:04:05.504Z,8.60
2023-05-14T06:06:32.807Z,9.95
2023-05-14T06:08:59.417Z,10.23
2023-05-14T06:11:26.550Z,10.73
2023-05-14T06:13:53.211Z,11.88
2023-05-14T06:16:19.759Z,8.88
2023-05-14T06:18:46.981Z,10.93
2023-05-14T06:21:13.473Z,13.65
2023-05-14T06:23:39.920Z,9.98
2023-05-14T06:26:06.462Z,8.07
2023-05-14T06:28:32.934Z,9.60
2023-05-14T06:30:59.385Z,11.95
2023-05-14T06:33:30.678Z,9.52
2023-05-14T06:36:03.533Z,10.10
2023-05-14T06:38:30.246Z,10.05
2023-05-14T06:40:56.760Z,9.93
2023-05-14T06:43:23.303Z,11.25
2023-05-14T06:45:53.341Z,11.45
2023-05-14T06:48:21.073Z,10.57
2023-05-14T06:50:49.170Z,10.02
2023-05-14T06:53:15.714Z,9.45
2023-05-14T06:55:42.257Z,10.98
2023-05-14T06:58:09.342Z,10.02
2023-05-14T07:00:35.875Z,10.25
2023-05-14T07:03:02.481Z,12.45
2023-05-14T07:05:29.086Z,10.40
2023-05-14T07:07:55.592Z,9.07
2023-05-14T07:10:22.808Z,10.15
2023-05-14T07:12:49.440Z,11.77
2023-05-14T07:15:16.027Z,13.52
2023-05-14T07:17:42.501Z,10.48
2023-05-14T07:20:09.803Z,10.68
2023-05-14T07:22:36.227Z,10.98
2023-05-14T07:25:03.072Z,9.63
2023-05-14T07:27:29.626Z,10.27
2023-05-14T07:29:56.115Z,11.77
2023-05-14T07:32:25.022Z,10.85
2023-05-14T07:34:51.758Z,10.70
2023-05-14T07:37:18.733Z,11.15
2023-05-14T07:39:45.216Z,9.82
2023-05-14T07:42:13.751Z,11.05
2023-05-14T07:44:46.079Z,10.50
2023-05-14T07:47:12.566Z,11.38
2023-05-14T07:49:39.044Z,11.30
2023-05-14T07:52:05.598Z,10.57
2023-05-14T07:54:31.990Z,11.23
2023-05-14T07:56:58.426Z,11.20
2023-05-14T07:59:24.922Z,12.35
2023-05-14T08:01:51.412Z,11.90
2023-05-14T08:04:18.025Z,14.15
2023-05-14T08:06:44.541Z,22.73
2023-05-14T08:09:11.038Z,22.52
2023-05-14T08:11:37.541Z,14.65
2023-05-14T08:14:04.057Z,11.57
2023-05-14T08:16:30.612Z,11.95
2023-05-14T08:18:57.126Z,11.48
2023-05-14T08:21:23.642Z,11.30
2023-05-14T08:23:50.151Z,10.73
2023-05-14T08:26:16.666Z,10.27
2023-05-14T08:28:43.171Z,9.18
2023-05-14T08:31:09.717Z,9.07
2023-05-14T08:33:36.328Z,10.05
2023-05-14T08:36:03.498Z,11.60
2023-05-14T08:38:30.067Z,13.48
2023-05-14T08:41:00.815Z,9.65
2023-05-14T08:43:31.658Z,9.13
2023-05-14T08:46:03.062Z,9.93
2023-05-14T08:48:33.422Z,9.75
2023-05-14T08:51:01.014Z,9.35
2023-05-14T08:53:27.566Z,10.13
2023-05-14T08:55:54.172Z,10.15
2023-05-14T08:58:20.716Z,11.32
2023-05-14T09:00:47.539Z,12.90
2023-05-14T09:03:15.014Z,9.48
2023-05-14T09:05:41.951Z,9.95
2023-05-14T09:08:08.479Z,10.05
2023-05-14T09:10:34.943Z,12.32
2023-05-14T09:13:01.485Z,11.85
2023-05-14T09:15:29.549Z,7.90
2023-05-14T09:17:56.961Z,10.70
2023-05-14T09:20:24.913Z,10.00
2023-05-14T09:22:54.853Z,11.45
2023-05-14T09:25:27.128Z,8.90
2023-05-14T09:27:56.724Z,10.88
2023-05-14T09:30:26.555Z,10.20
2023-05-14T09:32:54.361Z,10.77
2023-05-14T09:35:24.434Z,8.63
2023-05-14T09:37:52.861Z,8.85
2023-05-14T09:40:21.201Z,9.10
2023-05-14T09:42:50.904Z,9.55
2023-05-14T09:45:17.600Z,9.48
2023-05-14T09:47:45.162Z,9.60
2023-05-14T09:50:12.210Z,8.82
2023-05-14T09:52:38.958Z,8.98
2023-05-14T09:55:06.341Z,9.27
2023-05-14T09:57:33.527Z,8.02
2023-05-14T10:00:00.321Z,9.93
2023-05-14T10:02:37.574Z,8.52
2023-05-14T10:05:06.696Z,7.07
2023-05-14T10:07:44.492Z,8.10
2023-05-14T10:10:15.206Z,9.23
2023-05-14T10:12:46.103Z,8.27
2023-05-14T10:15:19.519Z,7.82
2023-05-14T10:17:55.561Z,7.47
2023-05-14T10:20:23.329Z,9.35
2023-05-14T10:22:51.056Z,9.13
2023-05-14T10:25:17.829Z,8.68
2023-05-14T10:27:45.130Z,10.32
2023-05-14T10:30:15.121Z,9.20
2023-05-14T10:32:44.627Z,7.88
2023-05-14T10:35:17.312Z,7.68
2023-05-14T10:37:45.707Z,8.02
2023-05-14T10:40:13.232Z,8.85
2023-05-14T10:42:40.883Z,7.22
2023-05-14T10:45:09.131Z,5.63
2023-05-14T10:47:37.226Z,6.50
2023-05-14T10:50:06.356Z,7.57
2023-05-14T10:52:33.851Z,6.47
2023-05-14T10:55:03.659Z,9.68
2023-05-14T10:57:32.198Z,7.13
2023-05-14T11:00:00.568Z,7.30
2023-05-14T11:02:32.951Z,5.63
2023-05-14T11:05:17.275Z,5.32
2023-05-14T11:07:48.692Z,5.63
2023-05-14T11:10:17.476Z,7.22
2023-05-14T11:12:46.963Z,7.38
2023-05-14T11:15:16.290Z,7.90
2023-05-14T11:17:44.170Z,9.10
2023-05-14T11:20:11.825Z,8.35
2023-05-14T11:22:40.248Z,9.05
2023-05-14T11:25:07.725Z,7.80
2023-05-14T11:27:38.431Z,7.53
2023-05-14T11:30:05.558Z,8.75
2023-05-14T11:32:32.481Z,7.75
2023-05-14T11:34:59.142Z,9.05
2023-05-14T11:37:25.690Z,7.18
2023-05-14T11:39:55.759Z,8.32
2023-05-14T11:42:23.580Z,6.63
2023-05-14T11:44:52.209Z,7.03
2023-05-14T11:47:20.636Z,9.15
2023-05-14T11:49:48.093Z,6.22
2023-05-14T11:52:16.333Z,7.40
2023-05-14T11:54:43.772Z,6.53
2023-05-14T11:57:12.699Z,7.45
2023-05-14T11:59:40.006Z,8.77
2023-05-14T12:02:10.601Z,6.93
2023-05-14T12:04:37.351Z,5.80
2023-05-14T12:07:15.912Z,7.75
2023-05-14T12:09:49.465Z,8.18
2023-05-14T12:12:19.929Z,7.70
2023-05-14T12:14:47.828Z,6.72
2023-05-14T12:17:22.868Z,6.60
2023-05-14T12:19:51.383Z,7.55
2023-05-14T12:22:20.638Z,7.68
2023-05-14T12:24:54.773Z,6.80
2023-05-14T12:27:26.610Z,6.35
2023-05-14T12:30:19.982Z,8.05
2023-05-14T12:32:51.191Z,8.93
2023-05-14T12:35:17.887Z,6.05
2023-05-14T12:37:44.501Z,6.38
2023-05-14T12:40:11.532Z,7.03
2023-05-14T12:42:38.111Z,7.07
2023-05-14T12:45:07.740Z,6.60
2023-05-14T12:47:34.772Z,7.15
2023-05-14T12:50:01.412Z,5.68
2023-05-14T12:52:37.566Z,6.43
2023-05-14T12:55:05.561Z,6.25
2023-05-14T12:57:32.211Z,7.80
2023-05-14T12:59:58.895Z,7.15
2023-05-14T13:02:25.530Z,6.18
2023-05-14T13:04:52.060Z,9.23
2023-05-14T13:07:18.590Z,6.10
2023-05-14T13:09:45.183Z,8.02
2023-05-14T13:12:11.712Z,6.30
2023-05-14T13:14:38.182Z,6.72
2023-05-14T13:17:05.278Z,6.60
2023-05-14T13:19:31.830Z,6.90
2023-05-14T13:21:58.315Z,6.32
2023-05-14T13:24:27.681Z,5.97
2023-05-14T13:26:54.121Z,7.43
2023-05-14T13:29:20.627Z,6.60
2023-05-14T13:31:47.276Z,5.28
2023-05-14T13:34:13.756Z,7.75
2023-05-14T13:36:43.384Z,5.75
2023-05-14T13:39:12.633Z,5.82
2023-05-14T13:41:40.071Z,5.45
2023-05-14T13:44:07.005Z,4.88
2023-05-14T13:46:33.644Z,4.85
2023-05-14T13:49:00.185Z,4.65
2023-05-14T13:51:26.626Z,4.85
2023-05-14T13:56:24.352Z,5.43
2023-05-14T13:58:50.828Z,5.15
2023-05-14T14:01:17.365Z,4.68
2023-05-14T14:03:43.811Z,5.03
2023-05-14T14:06:10.724Z,5.47
2023-05-14T14:08:37.198Z,5.63
2023-05-14T14:11:03.801Z,5.05
2023-05-14T14:13:30.280Z,6.82
2023-05-14T14:15:56.871Z,4.82
2023-05-14T14:18:23.380Z,4.95
2023-05-14T14:20:49.931Z,4.65
2023-05-14T14:23:16.521Z,5.65
2023-05-14T14:25:43.286Z,5.53
2023-05-14T14:28:09.734Z,5.45
2023-05-14T14:30:36.294Z,6.20
2023-05-14T14:33:03.073Z,5.40
2023-05-14T14:35:30.628Z,6.10
2023-05-14T14:37:57.101Z,5.38
2023-05-14T14:40:24.055Z,4.68
2023-05-14T14:42:50.685Z,6.15
2023-05-14T14:45:17.354Z,4.63
2023-05-14T14:47:45.935Z,5.82
2023-05-14T14:50:15.379Z,5.18
2023-05-14T14:52:45.738Z,4.82
2023-05-14T14:55:12.587Z,5.28
2023-05-14T14:57:39.016Z,4.38
2023-05-14T15:00:06.841Z,4.00
2023-05-14T15:02:33.513Z,4.47
2023-05-14T15:05:00.241Z,3.67
2023-05-14T15:07:26.641Z,4.40
2023-05-14T15:09:53.116Z,4.28
2023-05-14T15:12:19.617Z,4.22
2023-05-14T15:14:46.032Z,3.92
2023-05-14T15:17:12.504Z,3.30
2023-05-14T15:19:38.957Z,3.17
2023-05-14T15:22:05.565Z,4.10
2023-05-14T15:24:32.122Z,4.10
2023-05-14T15:26:58.546Z,3.55
2023-05-14T15:29:25.105Z,4.50
2023-05-14T15:31:51.653Z,5.68
2023-05-14T15:34:18.080Z,4.20
2023-05-14T15:36:44.508Z,5.63
2023-05-14T15:39:11.074Z,4.50
2023-05-14T15:41:37.763Z,3.63
2023-05-14T15:44:04.437Z,5.38
2023-05-14T15:46:31.061Z,6.13
2023-05-14T15:48:57.973Z,4.15
2023-05-14T15:51:24.616Z,4.90
2023-05-14T15:53:53.322Z,4.55
2023-05-14T15:56:20.751Z,4.63
2023-05-14T15:58:47.181Z,5.47
2023-05-14T16:01:13.627Z,4.60
2023-05-14T16:03:40.293Z,6.93
2023-05-14T16:06:07.176Z,13.80
2023-05-14T16:08:33.666Z,4.00
2023-05-14T16:11:00.139Z,4.43
2023-05-14T16:13:26.648Z,4.05
2023-05-14T16:15:53.210Z,3.35
2023-05-14T16:18:19.830Z,3.83
2023-05-14T16:20:46.237Z,3.78
2023-05-14T16:23:12.743Z,4.10
2023-05-14T16:25:39.238Z,4.15
2023-05-14T16:28:05.998Z,4.18
2023-05-14T16:30:32.663Z,4.80
2023-05-14T16:32:59.176Z,4.97
2023-05-14T16:35:25.770Z,4.50
2023-05-14T16:37:52.332Z,4.03
2023-05-14T16:40:19.613Z,6.53
2023-05-14T16:42:48.499Z,4.28
2023-05-14T16:45:15.834Z,4.30
2023-05-14T16:47:42.336Z,3.80
2023-05-14T16:50:09.180Z,5.90
2023-05-14T16:52:35.683Z,4.60
2023-05-14T16:55:02.227Z,5.93
2023-05-14T16:57:28.802Z,4.57
2023-05-14T16:59:55.207Z,7.10
2023-05-14T17:02:21.673Z,4.75
2023-05-14T17:04:48.248Z,5.30
2023-05-14T17:07:14.834Z,5.45
2023-05-14T17:09:41.639Z,3.88
2023-05-14T17:12:09.530Z,4.32
2023-05-14T17:14:35.982Z,5.55
2023-05-14T17:17:02.563Z,7.20
2023-05-14T17:19:29.047Z,4.75
2023-05-14T17:21:55.641Z,4.68
2023-05-14T17:24:22.120Z,5.85
2023-05-14T17:26:48.640Z,9.18
2023-05-14T17:29:15.146Z,6.80
2023-05-14T17:31:41.614Z,6.13
2023-05-14T17:34:08.101Z,7.57
2023-05-14T17:36:34.562Z,5.82
2023-05-14T17:39:00.997Z,5.78
2023-05-14T17:41:27.493Z,4.45
2023-05-14T17:43:54.078Z,4.53
2023-05-14T17:46:21.200Z,5.20
2023-05-14T17:48:47.687Z,3.90
2023-05-14T17:51:14.137Z,5.68
2023-05-14T17:53:40.690Z,5.78
2023-05-14T17:56:07.140Z,5.65
2023-05-14T17:58:33.706Z,4.47
2023-05-14T18:01:00.528Z,5.15
2023-05-14T18:03:27.255Z,5.75
2023-05-14T18:05:53.819Z,5.70
2023-05-14T18:08:20.366Z,4.40
2023-05-14T18:10:46.849Z,4.10
2023-05-14T18:13:13.309Z,4.47
2023-05-14T18:15:39.884Z,6.13
2023-05-14T18:18:06.470Z,13.07
2023-05-14T18:20:35.353Z,6.07
2023-05-14T18:23:02.571Z,5.60
2023-05-14T18:25:29.150Z,5.10
2023-05-14T18:27:55.751Z,5.00
2023-05-14T18:30:22.357Z,6.10
2023-05-14T18:32:48.828Z,4.38
2023-05-14T18:35:15.321Z,6.90
2023-05-14T18:37:41.863Z,6.72
2023-05-14T18:40:09.371Z,5.70
2023-05-14T18:42:35.888Z,4.72
2023-05-14T18:45:02.813Z,5.85
2023-05-14T18:47:29.432Z,5.25
2023-05-14T18:49:58.877Z,5.40
2023-05-14T18:52:26.188Z,6.65
2023-05-14T18:54:53.736Z,6.60
2023-05-14T18:57:20.955Z,4.88
2023-05-14T18:59:47.531Z,7.15
2023-05-14T19:02:13.982Z,7.25
2023-05-14T19:04:51.055Z,4.90
2023-05-14T19:07:18.073Z,5.30
2023-05-14T19:09:44.592Z,5.55
2023-05-14T19:12:11.142Z,5.95
2023-05-14T19:14:37.613Z,5.85
2023-05-14T19:17:04.710Z,6.85
2023-05-14T19:19:31.220Z,7.95
2023-05-14T19:21:57.699Z,8.27
2023-05-14T19:24:24.626Z,6.40
2023-05-14T19:26:51.105Z,6.03
2023-05-14T19:29:17.555Z,5.82
2023-05-14T19:31:44.866Z,6.90
2023-05-14T19:34:11.423Z,6.93
2023-05-14T19:36:37.931Z,7.20
2023-05-14T19:39:04.564Z,7.20
2023-05-14T19:41:31.096Z,6.63
2023-05-14T19:43:57.548Z,6.82
2023-05-14T19:46:24.157Z,6.82
2023-05-14T19:48:50.662Z,6.13
2023-05-14T19:51:17.123Z,9.05
2023-05-14T19:53:43.748Z,6.63
2023-05-14T19:56:10.250Z,6.32
2023-05-14T19:58:36.773Z,6.82
2023-05-14T20:01:04.316Z,5.65
2023-05-14T20:03:30.913Z,6.32
2023-05-14T20:05:57.945Z,10.80
2023-05-14T20:08:24.870Z,6.82
2023-05-14T20:10:51.417Z,6.53
2023-05-14T20:13:17.956Z,6.88
2023-05-14T20:15:44.471Z,8.05
2023-05-14T20:18:10.939Z,7.53
2023-05-14T20:20:37.397Z,8.10
2023-05-14T20:23:03.841Z,6.88
2023-05-14T20:25:32.577Z,9.45
2023-05-14T20:28:00.365Z,6.90
2023-05-14T20:30:30.065Z,7.82
2023-05-14T20:32:56.770Z,8.77
2023-05-14T20:35:23.572Z,7.32
2023-05-14T20:37:50.418Z,8.10
2023-05-14T20:40:17.012Z,6.30
2023-05-14T20:42:43.622Z,7.50
2023-05-14T20:45:10.655Z,7.28
2023-05-14T20:47:37.409Z,8.82
2023-05-14T20:50:04.670Z,6.53
2023-05-14T20:52:31.162Z,7.75
2023-05-14T20:54:59.430Z,7.50
2023-05-14T20:57:28.236Z,9.30
2023-05-14T20:59:54.714Z,7.22
2023-05-14T21:02:21.449Z,8.25
2023-05-14T21:04:48.067Z,6.97
2023-05-14T21:07:14.624Z,7.38
2023-05-14T21:09:41.089Z,9.88
2023-05-14T21:12:08.200Z,6.65
2023-05-14T21:14:34.682Z,10.73
2023-05-14T21:17:01.200Z,6.70
2023-05-14T21:19:27.809Z,7.20
2023-05-14T21:21:54.210Z,7.15
2023-05-14T21:24:20.702Z,8.13
2023-05-14T21:26:47.272Z,9.02
2023-05-14T21:29:13.831Z,8.48
2023-05-14T21:31:40.808Z,12.13
2023-05-14T21:34:07.419Z,10.55
2023-05-14T21:36:33.915Z,7.95
2023-05-14T21:39:00.461Z,11.20
2023-05-14T21:41:26.910Z,9.77
2023-05-14T21:43:53.398Z,7.65
2023-05-14T21:46:19.919Z,8.85
2023-05-14T21:48:46.507Z,8.13
2023-05-14T21:51:13.102Z,7.50
2023-05-14T21:53:39.502Z,8.98
2023-05-14T21:56:07.030Z,8.82
2023-05-14T21:58:33.726Z,10.15
2023-05-14T22:01:00.325Z,7.50
2023-05-14T22:03:26.882Z,9.48
2023-05-14T22:05:53.310Z,10.40
2023-05-14T22:08:19.797Z,7.65
2023-05-14T22:10:47.015Z,7.68
2023-05-14T22:13:13.533Z,8.68
2023-05-14T22:15:40.135Z,7.80
2023-05-14T22:18:06.890Z,7.95
2023-05-14T22:20:33.433Z,8.20
2023-05-14T22:22:59.957Z,9.43
2023-05-14T22:25:26.604Z,7.45
2023-05-14T22:27:53.297Z,7.90
2023-05-14T22:30:19.774Z,9.68
2023-05-14T22:32:46.308Z,9.02
2023-05-14T22:35:12.859Z,8.02
2023-05-14T22:37:39.292Z,7.25
2023-05-14T22:40:07.329Z,9.35
2023-05-14T22:42:33.871Z,10.45
2023-05-14T22:45:00.345Z,8.00
2023-05-14T22:47:26.997Z,8.82
2023-05-14T22:49:53.421Z,9.00
2023-05-14T22:52:19.930Z,7.28
2023-05-14T22:54:47.073Z,8.60
2023-05-14T22:57:13.576Z,6.80
2023-05-14T22:59:40.184Z,7.55
2023-05-14T23:02:06.797Z,7.40
2023-05-14T23:04:33.592Z,7.00
2023-05-14T23:07:00.195Z,6.20
2023-05-14T23:09:26.754Z,6.68
2023-05-14T23:11:53.261Z,7.10
2023-05-14T23:14:19.814Z,7.28
2023-05-14T23:16:46.306Z,6.25
2023-05-14T23:19:13.060Z,8.88
2023-05-14T23:21:39.747Z,6.57
2023-05-14T23:24:06.532Z,8.55
2023-05-14T23:26:33.109Z,6.88
2023-05-14T23:28:59.569Z,6.82
2023-05-14T23:31:26.213Z,7.75
2023-05-14T23:33:52.640Z,8.98
2023-05-14T23:36:19.225Z,7.13
2023-05-14T23:38:45.883Z,6.45
2023-05-14T23:41:12.370Z,6.68
2023-05-14T23:43:38.745Z,6.68
2023-05-14T23:46:05.470Z,8.73
2023-05-14T23:48:32.444Z,7.93
2023-05-14T23:50:58.912Z,7.38
2023-05-14T23:53:25.501Z,6.35
2023-05-14T23:55:51.987Z,6.60
2023-05-14T23:58:18.477Z,8.45
